createdAt,value
2019-02-17T00:00:30.270Z,101283.70
2019-02-17T00:05:34.041Z,101287.65
2019-02-17T00:10:37.843Z,101290.23
2019-02-17T00:15:41.605Z,101285.92
2019-02-17T00:20:45.412Z,101293.80
2019-02-17T00:25:49.189Z,101296.96
2019-02-17T00:30:53.007Z,101296.96
2019-02-17T00:35:56.896Z,101299.16
2019-02-17T00:41:01.738Z,101299.16
2019-02-17T00:46:05.572Z,101303.61
2019-02-17T00:51:09.379Z,101303.61
2019-02-17T00:56:13.152Z,101310.12
2019-02-17T01:01:17.034Z,101310.12
2019-02-17T01:06:20.826Z,101308.30
2019-02-17T01:11:24.671Z,101314.73
2019-02-17T01:16:28.534Z,101312.13
2019-02-17T01:21:32.351Z,101314.33
2019-02-17T01:26:36.120Z,101319.80
2019-02-17T01:31:39.890Z,101318.95
2019-02-17T01:36:43.721Z,101318.95
2019-02-17T01:41:47.514Z,101318.84
2019-02-17T01:46:51.359Z,101304.17
2019-02-17T01:51:55.193Z,101306.06
2019-02-17T01:56:58.968Z,101306.06
2019-02-17T02:02:02.759Z,101307.63
2019-02-17T02:07:06.554Z,101303.97
2019-02-17T02:12:10.333Z,101296.28
2019-02-17T02:17:14.173Z,101296.28
2019-02-17T02:22:17.975Z,101281.83
2019-02-17T02:27:21.840Z,101277.91
2019-02-17T02:32:25.629Z,101277.91
2019-02-17T02:37:29.553Z,101269.95
2019-02-17T02:42:33.332Z,101268.89
2019-02-17T02:47:37.100Z,101268.89
2019-02-17T02:52:41.109Z,101265.93
2019-02-17T02:57:44.964Z,101265.93
2019-02-17T03:02:49.235Z,101260.09
2019-02-17T03:07:53.017Z,101260.09
2019-02-17T03:12:56.812Z,101255.30
2019-02-17T03:18:00.762Z,101263.64
2019-02-17T03:23:04.678Z,101266.05
2019-02-17T03:28:08.464Z,101253.20
2019-02-17T03:33:12.326Z,101253.20
2019-02-17T03:38:16.097Z,101258.20
2019-02-17T03:43:20.073Z,101248.91
2019-02-17T03:48:23.999Z,101258.38
2019-02-17T03:53:27.822Z,101261.16
2019-02-17T03:58:31.591Z,101258.48
2019-02-17T04:03:35.385Z,101258.48
2019-02-17T04:08:39.189Z,101258.09
2019-02-17T04:13:42.996Z,101258.41
2019-02-17T04:18:46.790Z,101265.88
2019-02-17T04:23:50.609Z,101262.05
2019-02-17T04:28:54.390Z,101260.23
2019-02-17T04:33:58.175Z,101269.42
2019-02-17T04:39:01.930Z,101269.42
2019-02-17T04:44:05.707Z,101271.24
2019-02-17T04:49:09.465Z,101271.24
2019-02-17T04:54:13.289Z,101254.37
2019-02-17T04:59:17.139Z,101240.09
2019-02-17T05:04:20.974Z,101240.09
2019-02-17T05:09:24.761Z,101249.88
2019-02-17T05:14:28.583Z,101249.88
2019-02-17T05:19:32.388Z,101247.39
2019-02-17T05:24:36.133Z,101247.39
2019-02-17T05:29:39.959Z,101255.61
2019-02-17T05:34:43.721Z,101253.03
2019-02-17T05:39:48.040Z,101257.92
2019-02-17T05:44:51.830Z,101257.55
2019-02-17T05:49:55.756Z,101246.53
2019-02-17T05:54:59.591Z,101251.52
2019-02-17T06:00:03.575Z,101263.97
2019-02-17T06:05:07.898Z,101263.22
2019-02-17T06:10:11.681Z,101263.22
2019-02-17T06:15:15.457Z,101272.50
2019-02-17T06:20:19.234Z,101279.59
2019-02-17T06:25:23.071Z,101281.89
2019-02-17T06:30:27.234Z,101288.50
2019-02-17T06:35:31.014Z,101290.32
2019-02-17T06:40:34.917Z,101292.72
2019-02-17T06:45:38.694Z,101292.72
2019-02-17T06:50:42.484Z,101297.13
2019-02-17T06:56:16.391Z,101296.75
2019-02-17T07:01:24.600Z,101297.61
2019-02-17T07:06:29.014Z,101294.64
2019-02-17T07:11:32.992Z,101298.67
2019-02-17T07:16:36.800Z,101298.67
2019-02-17T07:21:40.570Z,101300.56
2019-02-17T07:26:44.402Z,101304.20
2019-02-17T07:31:57.078Z,101299.33
2019-02-17T07:37:00.855Z,101303.25
2019-02-17T07:42:04.720Z,101298.77
2019-02-17T07:47:08.588Z,101295.20
2019-02-17T07:52:12.486Z,101321.63
2019-02-17T07:57:16.355Z,101314.43
2019-02-17T08:02:20.143Z,101314.43
2019-02-17T08:07:23.963Z,101294.18
2019-02-17T08:12:27.784Z,101297.70
2019-02-17T08:17:31.580Z,101285.64
2019-02-17T08:22:35.403Z,101279.47
2019-02-17T08:27:39.269Z,101276.89
2019-02-17T08:32:44.216Z,101275.20
2019-02-17T08:37:48.265Z,101275.20
2019-02-17T08:42:52.081Z,101279.22
2019-02-17T08:47:55.975Z,101278.81
2019-02-17T08:52:59.790Z,101276.72
2019-02-17T08:58:03.586Z,101274.41
2019-02-17T09:03:07.372Z,101275.19
2019-02-17T09:08:11.146Z,101275.19
2019-02-17T09:13:14.967Z,101261.28
2019-02-17T09:18:18.865Z,101261.28
2019-02-17T09:23:22.665Z,101253.70
2019-02-17T09:28:26.730Z,101259.23
2019-02-17T09:33:30.539Z,101251.19
2019-02-17T09:38:34.450Z,101251.19
2019-02-17T09:43:38.219Z,101238.92
2019-02-17T09:48:42.018Z,101233.55
2019-02-17T09:53:45.958Z,101233.55
2019-02-17T09:58:49.763Z,101235.95
2019-02-17T10:03:53.562Z,101233.69
2019-02-17T10:08:57.361Z,101233.69
2019-02-17T10:14:01.152Z,101226.08
2019-02-17T10:19:05.000Z,101226.08
2019-02-17T10:24:08.789Z,101219.41
2019-02-17T10:29:12.581Z,101219.20
2019-02-17T10:34:16.443Z,101219.20
2019-02-17T10:39:20.247Z,101216.80
2019-02-17T10:44:24.071Z,101205.03
2019-02-17T10:49:27.949Z,101197.94
2019-02-17T10:54:31.777Z,101191.23
2019-02-17T10:59:35.566Z,101187.28
2019-02-17T11:04:39.384Z,101187.28
2019-02-17T11:09:43.244Z,101177.13
2019-02-17T11:14:47.216Z,101168.53
2019-02-17T11:19:51.005Z,101161.72
2019-02-17T11:24:55.007Z,101161.72
2019-02-17T11:29:58.812Z,101148.86
2019-02-17T11:35:02.650Z,101148.78
2019-02-17T11:40:08.509Z,101142.45
2019-02-17T11:45:14.330Z,101140.91
2019-02-17T11:50:18.148Z,101143.39
2019-02-17T11:55:22.852Z,101143.39
2019-02-17T12:00:26.869Z,101124.16
2019-02-17T12:05:30.832Z,101122.52
2019-02-17T12:10:34.630Z,101123.17
2019-02-17T12:15:38.433Z,101107.00
2019-02-17T12:20:57.258Z,101094.83
2019-02-17T12:26:20.055Z,101093.41
2019-02-17T12:31:27.198Z,101088.52
2019-02-17T12:36:31.007Z,101086.38
2019-02-17T12:41:34.790Z,101078.53
2019-02-17T12:46:38.903Z,101078.53
2019-02-17T12:51:42.755Z,101067.95
2019-02-17T12:56:46.620Z,101067.95
2019-02-17T13:01:50.432Z,101063.16
2019-02-17T13:06:54.250Z,101063.16
2019-02-17T13:11:58.074Z,101055.91
2019-02-17T13:17:01.882Z,101055.91
2019-02-17T13:22:05.774Z,101051.22
2019-02-17T13:27:09.655Z,101044.67
2019-02-17T13:32:13.491Z,101039.67
2019-02-17T13:37:17.298Z,101037.47
2019-02-17T13:42:21.864Z,101037.18
2019-02-17T13:47:25.657Z,101038.68
2019-02-17T13:52:31.925Z,101035.14
2019-02-17T13:57:35.022Z,101032.34
2019-02-17T14:02:38.879Z,101021.98
2019-02-17T14:07:42.745Z,101019.67
2019-02-17T14:12:46.584Z,101019.67
2019-02-17T14:17:50.389Z,101012.50
2019-02-17T14:22:54.827Z,101012.50
2019-02-17T14:27:58.705Z,100998.86
2019-02-17T14:33:02.572Z,100998.86
2019-02-17T14:38:06.394Z,100992.82
2019-02-17T14:43:10.194Z,100993.23
2019-02-17T14:48:13.998Z,100986.03
2019-02-17T14:53:17.815Z,100979.20
2019-02-17T14:58:21.617Z,100979.20
2019-02-17T15:03:25.426Z,100973.84
2019-02-17T15:08:29.220Z,100972.49
2019-02-17T15:13:33.110Z,100972.49
2019-02-17T15:18:36.934Z,100958.40
2019-02-17T15:23:40.893Z,100952.17
2019-02-17T15:28:51.222Z,100955.23
2019-02-17T15:33:50.208Z,100947.28
2019-02-17T15:38:54.008Z,100947.28
2019-02-17T15:43:57.846Z,100944.97
2019-02-17T15:49:01.643Z,100926.52
2019-02-17T15:54:05.473Z,100935.05
2019-02-17T15:59:09.260Z,100923.68
2019-02-17T16:04:13.085Z,100923.68
2019-02-17T16:09:16.902Z,100916.97
2019-02-17T16:14:20.700Z,100916.48
2019-02-17T16:19:24.511Z,100909.84
2019-02-17T16:24:28.313Z,100909.84
2019-02-17T16:29:32.106Z,100908.62
2019-02-17T16:34:38.432Z,100913.98
2019-02-17T16:39:41.477Z,100913.98
2019-02-17T16:44:45.299Z,100915.70
2019-02-17T16:49:49.108Z,100915.70
2019-02-17T16:54:52.941Z,100909.77
2019-02-17T16:59:56.749Z,100917.64
2019-02-17T17:05:00.573Z,100926.62
2019-02-17T17:10:04.559Z,100926.62
2019-02-17T17:15:08.375Z,100923.73
2019-02-17T17:20:12.197Z,100914.34
2019-02-17T17:25:16.036Z,100914.34
2019-02-17T17:30:19.867Z,100915.16
2019-02-17T17:35:23.668Z,100914.22
2019-02-17T17:40:27.506Z,100914.06
2019-02-17T17:45:31.304Z,100914.06
2019-02-17T17:50:35.163Z,100904.80
2019-02-17T17:55:38.986Z,100905.45
2019-02-17T18:00:43.595Z,100905.45
2019-02-17T18:05:47.712Z,100911.98
2019-02-17T18:10:51.542Z,100911.16
2019-02-17T18:15:55.386Z,100914.86
2019-02-17T18:20:59.198Z,100914.86
2019-02-17T18:26:03.018Z,100920.05
2019-02-17T18:31:06.812Z,100922.86
2019-02-17T18:36:10.656Z,100922.86
2019-02-17T18:41:14.458Z,100915.93
2019-02-17T18:46:18.293Z,100914.50
2019-02-17T18:51:22.198Z,100918.66
2019-02-17T18:56:26.051Z,100918.29
2019-02-17T19:01:29.909Z,100915.98
2019-02-17T19:06:33.714Z,100915.98
2019-02-17T19:11:37.535Z,100904.72
2019-02-17T19:16:41.341Z,100898.94
2019-02-17T19:21:45.174Z,100892.28
2019-02-17T19:26:48.967Z,100892.28
2019-02-17T19:31:52.763Z,100892.28
2019-02-17T19:36:56.562Z,100899.95
2019-02-17T19:42:00.368Z,100895.30
2019-02-17T19:47:04.161Z,100902.31
2019-02-17T19:52:07.974Z,100898.37
2019-02-17T19:57:11.773Z,100897.42
2019-02-17T20:02:16.756Z,100894.89
2019-02-17T20:07:20.562Z,100893.11
2019-02-17T20:12:24.507Z,100897.39
2019-02-17T20:17:30.252Z,100892.38
2019-02-17T20:22:33.918Z,100894.41
2019-02-17T20:27:37.709Z,100894.24
2019-02-17T20:32:41.517Z,100895.30
2019-02-17T20:37:45.324Z,100902.47
2019-02-17T20:42:49.143Z,100910.00
2019-02-17T20:47:52.961Z,100910.00
2019-02-17T20:52:56.766Z,100908.64
2019-02-17T20:58:00.571Z,100910.80
2019-02-17T21:03:04.365Z,100907.85
2019-02-17T21:08:08.162Z,100907.85
2019-02-17T21:13:11.969Z,100912.44
2019-02-17T21:18:15.794Z,100913.90
2019-02-17T21:23:19.634Z,100913.90
2019-02-17T21:28:23.436Z,100917.80
2019-02-17T21:33:27.228Z,100917.80
2019-02-17T21:38:31.052Z,100922.89
2019-02-17T21:43:34.880Z,100925.09
2019-02-17T21:48:38.690Z,100927.76
2019-02-17T21:53:42.494Z,100928.62
2019-02-17T21:58:46.295Z,100931.67
2019-02-17T22:03:50.108Z,100924.22
2019-02-17T22:08:53.916Z,100924.22
2019-02-17T22:13:57.709Z,100927.59
2019-02-17T22:19:01.502Z,100915.50
2019-02-17T22:24:05.337Z,100915.19
2019-02-17T22:29:09.126Z,100915.19
2019-02-17T22:34:12.936Z,100908.03
2019-02-17T22:39:16.774Z,100910.35
2019-02-17T22:44:20.603Z,100912.19
2019-02-17T22:49:24.425Z,100912.19
2019-02-17T22:54:28.241Z,100914.82
2019-02-17T22:59:32.040Z,100920.68
2019-02-17T23:04:35.832Z,100920.77
2019-02-17T23:09:39.635Z,100920.77
2019-02-17T23:14:43.446Z,100928.84
2019-02-17T23:19:47.261Z,100928.84
2019-02-17T23:24:51.067Z,100922.20
2019-02-17T23:29:54.869Z,100928.92
2019-02-17T23:34:58.674Z,100928.92
2019-02-17T23:40:02.564Z,100933.55
2019-02-17T23:45:07.501Z,100933.55
2019-02-17T23:50:11.597Z,100934.89
2019-02-17T23:55:15.398Z,100935.61
